createdAt,value
2019-04-10T00:00:02.894Z,73.56
2019-04-10T00:01:15.168Z,74.41
2019-04-10T00:02:26.178Z,73.75
2019-04-10T00:03:43.839Z,72.99
2019-04-10T00:04:54.082Z,72.89
2019-04-10T00:06:05.006Z,72.99
2019-04-10T00:07:21.178Z,73.84
2019-04-10T00:08:32.782Z,74.22
2019-04-10T00:09:45.556Z,74.88
2019-04-10T00:10:56.262Z,74.13
2019-04-10T00:12:07.787Z,74.95
2019-04-10T00:13:18.831Z,74.69
2019-04-10T00:14:30.676Z,75.42
2019-04-10T00:15:42.260Z,74.69
2019-04-10T00:16:54.399Z,74.95
2019-04-10T00:18:05.531Z,74.56
2019-04-10T00:19:15.261Z,74.37
2019-04-10T00:20:26.960Z,74.56
2019-04-10T00:21:37.950Z,74.75
2019-04-10T00:22:48.698Z,74.85
2019-04-10T00:23:59.587Z,74.28
2019-04-10T00:25:10.416Z,74.28
2019-04-10T00:26:21.961Z,74.18
2019-04-10T00:27:33.064Z,74.37
2019-04-10T00:28:44.124Z,74.09
2019-04-10T00:29:54.917Z,74.37
2019-04-10T00:31:05.880Z,74.56
2019-04-10T00:32:17.019Z,74.75
2019-04-10T00:33:27.415Z,75.42
2019-04-10T00:34:38.258Z,76.65
2019-04-10T00:35:48.484Z,76.74
2019-04-10T00:36:59.959Z,77.31
2019-04-10T00:38:26.018Z,77.97
2019-04-10T00:39:37.303Z,77.4
2019-04-10T00:40:48.229Z,77.5
2019-04-10T00:41:59.211Z,77.59
2019-04-10T00:43:11.307Z,78.16
2019-04-10T00:44:22.331Z,79.11
2019-04-10T00:45:33.497Z,79.58
2019-04-10T00:46:44.659Z,79.58
2019-04-10T00:47:55.659Z,79.02
2019-04-10T00:49:07.437Z,79.96
2019-04-10T00:50:18.341Z,79.87
2019-04-10T00:51:30.848Z,80.06
2019-04-10T00:52:40.791Z,80.34
2019-04-10T00:53:52.180Z,79.07
2019-04-10T00:55:03.560Z,78.98
2019-04-10T00:56:14.900Z,79.74
2019-04-10T00:57:27.878Z,80.21
2019-04-10T00:58:40.034Z,80.21
2019-04-10T00:59:51.231Z,80.4
2019-04-10T01:01:03.214Z,80.49
2019-04-10T01:02:14.647Z,80.77
2019-04-10T01:03:25.182Z,80.3
2019-04-10T01:04:35.898Z,80.77
2019-04-10T01:05:47.127Z,79.93
2019-04-10T01:06:57.196Z,79.55
2019-04-10T01:08:08.990Z,79.17
2019-04-10T01:09:19.824Z,78.88
2019-04-10T01:10:30.376Z,79.07
2019-04-10T01:11:41.661Z,79.26
2019-04-10T01:12:52.755Z,80.11
2019-04-10T01:14:03.671Z,80.21
2019-04-10T01:15:15.253Z,79.64
2019-04-10T01:16:25.941Z,80.3
2019-04-10T01:17:38.115Z,81.25
2019-04-10T01:18:47.974Z,81.44
2019-04-10T01:19:58.958Z,81.34
2019-04-10T01:21:15.114Z,82.29
2019-04-10T01:22:27.442Z,82.39
2019-04-10T01:23:39.347Z,82.76
2019-04-10T01:24:50.469Z,81.92
2019-04-10T01:26:01.134Z,82.1
2019-04-10T01:27:12.138Z,82.86
2019-04-10T01:28:23.162Z,82.48
2019-04-10T01:29:33.860Z,82.67
2019-04-10T01:30:45.003Z,83.24
2019-04-10T01:31:55.980Z,83.24
2019-04-10T01:33:06.833Z,82.1
2019-04-10T01:34:17.693Z,81.92
2019-04-10T01:35:29.938Z,82.01
2019-04-10T01:36:39.940Z,83.33
2019-04-10T01:38:00.736Z,84
2019-04-10T01:39:14.207Z,84.19
2019-04-10T01:40:26.734Z,83.39
2019-04-10T01:41:39.688Z,84.05
2019-04-10T01:43:11.350Z,83.67
2019-04-10T01:44:28.789Z,83.29
2019-04-10T01:45:40.097Z,83.1
2019-04-10T01:46:50.731Z,84.23
2019-04-10T01:48:01.520Z,83.95
2019-04-10T01:49:13.479Z,83.58
2019-04-10T01:50:23.227Z,84.42
2019-04-10T01:51:35.080Z,85.47
2019-04-10T01:52:47.337Z,85.19
2019-04-10T01:53:58.532Z,85.47
2019-04-10T01:55:26.971Z,85.28
2019-04-10T01:56:42.143Z,85.28
2019-04-10T01:57:52.961Z,85.19
2019-04-10T01:59:03.892Z,85.94
2019-04-10T02:00:15.629Z,85.75
2019-04-10T02:01:26.821Z,85.09
2019-04-10T02:02:37.813Z,84.52
2019-04-10T02:03:49.769Z,84.33
2019-04-10T02:05:00.825Z,85.66
2019-04-10T02:06:11.659Z,85.75
2019-04-10T02:07:23.100Z,85.19
2019-04-10T02:08:36.048Z,85.28
2019-04-10T02:09:46.045Z,85.28
2019-04-10T02:10:58.348Z,84.61
2019-04-10T02:12:10.369Z,84.71
2019-04-10T02:13:21.585Z,84.33
2019-04-10T02:14:32.209Z,84.61
2019-04-10T02:15:44.294Z,84.61
2019-04-10T02:16:55.035Z,85.09
2019-04-10T02:18:05.329Z,85.09
2019-04-10T02:19:16.719Z,85.09
2019-04-10T02:20:27.416Z,85.57
2019-04-10T02:21:38.417Z,85.66
2019-04-10T02:22:48.291Z,85.19
2019-04-10T02:23:59.261Z,84.52
2019-04-10T02:25:10.178Z,84.61
2019-04-10T02:26:21.380Z,84.52
2019-04-10T02:27:32.328Z,86.04
2019-04-10T02:28:43.377Z,85.47
2019-04-10T02:29:55.707Z,85.94
2019-04-10T02:31:07.261Z,84.9
2019-04-10T02:32:21.347Z,85.28
2019-04-10T02:33:36.033Z,85.66
2019-04-10T02:34:50.655Z,85.47
2019-04-10T02:36:06.134Z,86.32
2019-04-10T02:37:19.195Z,87.46
2019-04-10T02:39:08.106Z,86.89
2019-04-10T02:40:50.239Z,85.94
2019-04-10T02:42:03.139Z,85.66
2019-04-10T02:43:16.838Z,85.94
2019-04-10T02:44:33.073Z,86.41
2019-04-10T02:45:47.008Z,86.04
2019-04-10T02:47:02.081Z,86.56
2019-04-10T02:48:17.413Z,86.51
2019-04-10T02:49:31.978Z,86.98
2019-04-10T02:50:45.713Z,87.84
2019-04-10T02:51:59.800Z,88.02
2019-04-10T02:53:15.937Z,87.46
2019-04-10T02:54:29.640Z,87.51
2019-04-10T02:55:45.402Z,87.93
2019-04-10T02:57:01.195Z,88.55
2019-04-10T02:58:18.393Z,87.32
2019-04-10T02:59:33.381Z,87.6
2019-04-10T03:00:48.571Z,87.51
2019-04-10T03:02:04.149Z,88.07
2019-04-10T03:03:18.343Z,88.36
2019-04-10T03:04:31.233Z,88.93
2019-04-10T03:05:46.557Z,89.21
2019-04-10T03:06:57.831Z,89.12
2019-04-10T03:08:12.984Z,88.55
2019-04-10T03:10:26.238Z,87.88
2019-04-10T03:12:06.651Z,89.59
2019-04-10T03:13:26.800Z,88.74
2019-04-10T03:14:45.791Z,88.93
2019-04-10T03:16:03.108Z,88.64
2019-04-10T03:17:15.570Z,88.45
2019-04-10T03:18:25.431Z,88.17
2019-04-10T03:19:36.166Z,87.79
2019-04-10T03:20:47.111Z,88.31
2019-04-10T03:21:57.955Z,87.93
2019-04-10T03:23:11.779Z,87.55
2019-04-10T03:24:23.615Z,87.6
2019-04-10T03:25:35.450Z,87.7
2019-04-10T03:26:46.577Z,88.26
2019-04-10T03:27:57.402Z,88.59
2019-04-10T03:29:08.424Z,88.21
2019-04-10T03:30:23.326Z,88.87
2019-04-10T03:31:41.822Z,88.97
2019-04-10T03:33:09.056Z,88.31
2019-04-10T03:34:45.199Z,90.67
2019-04-10T03:35:59.555Z,90.2
2019-04-10T03:37:11.737Z,89.73
2019-04-10T03:38:21.718Z,90.01
2019-04-10T03:39:35.945Z,90.96
2019-04-10T03:40:46.163Z,90.86
2019-04-10T03:41:57.117Z,91.05
2019-04-10T03:43:10.128Z,91.62
2019-04-10T03:44:21.142Z,90.77
2019-04-10T03:45:33.057Z,91.81
2019-04-10T03:46:45.071Z,91.43
2019-04-10T03:47:58.231Z,91.91
2019-04-10T03:49:12.078Z,92.1
2019-04-10T03:50:23.653Z,92
2019-04-10T03:51:34.862Z,91.53
2019-04-10T03:52:45.737Z,92
2019-04-10T03:53:56.837Z,91.43
2019-04-10T03:55:08.283Z,92.29
2019-04-10T03:56:21.345Z,91.81
2019-04-10T03:57:33.085Z,92
2019-04-10T03:58:44.412Z,91.15
2019-04-10T03:59:55.727Z,91.53
2019-04-10T04:01:07.256Z,91.62
2019-04-10T04:02:18.115Z,91.53
2019-04-10T04:03:31.134Z,91.34
2019-04-10T04:04:44.185Z,91.72
2019-04-10T04:05:55.565Z,91.15
2019-04-10T04:07:07.430Z,91.43
2019-04-10T04:08:19.278Z,91.15
2019-04-10T04:09:29.658Z,91.34
2019-04-10T04:10:40.634Z,90.86
2019-04-10T04:11:50.608Z,91.53
2019-04-10T04:13:04.757Z,90.96
2019-04-10T04:14:16.899Z,91.15
2019-04-10T04:15:28.560Z,91.62
2019-04-10T04:16:39.888Z,92
2019-04-10T04:17:50.980Z,92
2019-04-10T04:19:04.158Z,92.47
2019-04-10T04:20:15.291Z,91.91
2019-04-10T04:21:26.211Z,92.29
2019-04-10T04:22:37.275Z,92.1
2019-04-10T04:23:49.276Z,92.47
2019-04-10T04:25:00.647Z,92.19
2019-04-10T04:26:10.598Z,91.72
2019-04-10T04:27:22.146Z,91.81
2019-04-10T04:28:32.410Z,92.57
2019-04-10T04:29:43.768Z,91.91
2019-04-10T04:30:56.759Z,92.19
2019-04-10T04:32:08.860Z,92.29
2019-04-10T04:33:19.011Z,92.57
2019-04-10T04:34:29.676Z,93.04
2019-04-10T04:35:41.068Z,92.76
2019-04-10T04:36:51.742Z,92.47
2019-04-10T04:38:02.492Z,92.38
2019-04-10T04:39:26.914Z,92.57
2019-04-10T04:40:39.994Z,92.94
2019-04-10T04:41:50.311Z,92.29
2019-04-10T04:43:00.538Z,91.62
2019-04-10T04:44:12.302Z,91.81
2019-04-10T04:45:23.977Z,91.81
2019-04-10T04:46:34.778Z,92
2019-04-10T04:47:45.743Z,92.38
2019-04-10T04:48:57.709Z,91.81
2019-04-10T04:50:08.010Z,91.53
2019-04-10T04:51:18.298Z,91.34
2019-04-10T04:52:30.434Z,91.34
2019-04-10T04:53:40.393Z,90.96
2019-04-10T04:54:53.178Z,91.34
2019-04-10T04:56:04.172Z,91.62
2019-04-10T04:57:15.208Z,91.05
2019-04-10T04:58:26.729Z,91.62
2019-04-10T04:59:37.065Z,91.38
2019-04-10T05:00:48.371Z,91.43
2019-04-10T05:01:59.747Z,90.96
2019-04-10T05:03:10.190Z,90.81
2019-04-10T05:04:19.886Z,91
2019-04-10T05:05:31.675Z,91.19
2019-04-10T05:06:42.034Z,91
2019-04-10T05:08:04.036Z,91
2019-04-10T05:09:35.431Z,90.81
2019-04-10T05:10:49.873Z,90.15
2019-04-10T05:12:01.035Z,90.15
2019-04-10T05:13:10.660Z,90.06
2019-04-10T05:14:22.010Z,90.44
2019-04-10T05:15:33.492Z,89.77
2019-04-10T05:16:44.086Z,88.82
2019-04-10T05:17:55.914Z,88.82
2019-04-10T05:19:07.780Z,88.64
2019-04-10T05:20:18.913Z,88.82
2019-04-10T05:21:42.116Z,88.26
2019-04-10T05:22:55.270Z,88.35
2019-04-10T05:24:05.665Z,87.88
2019-04-10T05:25:16.789Z,87.78
2019-04-10T05:26:28.092Z,88.07
2019-04-10T05:27:39.562Z,87.69
2019-04-10T05:28:50.780Z,86.83
2019-04-10T05:30:00.590Z,87.12
2019-04-10T05:31:11.700Z,86.55
2019-04-10T05:32:23.916Z,86.36
2019-04-10T05:33:33.896Z,86.18
2019-04-10T05:34:46.630Z,86.27
2019-04-10T05:35:57.972Z,85.7
2019-04-10T05:37:09.857Z,85.42
2019-04-10T05:38:23.168Z,83.52
2019-04-10T05:39:50.348Z,82.57
2019-04-10T05:41:02.122Z,81.72
2019-04-10T05:42:12.833Z,81.34
2019-04-10T05:43:24.401Z,81.01
2019-04-10T05:44:34.362Z,80.06
2019-04-10T05:45:46.399Z,79.58
2019-04-10T05:46:57.294Z,78.73
2019-04-10T05:48:09.210Z,78.92
2019-04-10T05:49:20.624Z,79.02
2019-04-10T05:50:30.446Z,79.21
2019-04-10T05:51:41.967Z,78.54
2019-04-10T05:52:54.180Z,78.73
2019-04-10T05:54:06.414Z,79.02
2019-04-10T05:55:16.457Z,77.97
2019-04-10T05:56:28.312Z,77.59
2019-04-10T05:57:40.556Z,78.07
2019-04-10T05:58:51.455Z,77.5
2019-04-10T06:00:02.962Z,77.78
2019-04-10T06:01:13.984Z,77.78
2019-04-10T06:02:42.235Z,77.31
2019-04-10T06:03:54.309Z,77.59
2019-04-10T06:05:05.898Z,77.4
2019-04-10T06:06:16.996Z,76.93
2019-04-10T06:07:27.711Z,75.98
2019-04-10T06:08:38.122Z,76.27
2019-04-10T06:10:04.953Z,75.79
2019-04-10T06:11:20.511Z,75.7
2019-04-10T06:12:33.842Z,75.89
2019-04-10T06:13:45.143Z,75.6
2019-04-10T06:14:57.058Z,76.08
2019-04-10T06:16:07.859Z,76.65
2019-04-10T06:17:18.859Z,76.65
2019-04-10T06:18:31.195Z,75.51
2019-04-10T06:19:43.024Z,75.32
2019-04-10T06:20:54.556Z,74.18
2019-04-10T06:22:05.820Z,73.52
2019-04-10T06:23:19.052Z,73.8
2019-04-10T06:24:29.936Z,73.99
2019-04-10T06:25:43.558Z,72.96
2019-04-10T06:26:56.073Z,73.33
2019-04-10T06:28:07.775Z,73.9
2019-04-10T06:29:19.514Z,72.77
2019-04-10T06:30:32.572Z,72.77
2019-04-10T06:31:43.457Z,72.77
2019-04-10T06:32:56.307Z,72.77
2019-04-10T06:34:08.611Z,72.99
2019-04-10T06:35:26.533Z,72.89
2019-04-10T06:36:39.564Z,72.33
2019-04-10T06:37:50.526Z,72.04
2019-04-10T06:39:02.808Z,71.66
2019-04-10T06:40:23.927Z,70.9
2019-04-10T06:41:37.311Z,71.09
2019-04-10T06:42:56.118Z,70.72
2019-04-10T06:44:08.209Z,70.34
2019-04-10T06:45:20.299Z,70.05
2019-04-10T06:46:32.603Z,70.15
2019-04-10T06:47:47.131Z,69.77
2019-04-10T06:48:58.740Z,69.96
2019-04-10T06:50:13.028Z,70.05
2019-04-10T06:51:25.047Z,69.86
2019-04-10T06:52:36.965Z,69.01
2019-04-10T06:53:58.573Z,69.29
2019-04-10T06:55:19.272Z,68.63
2019-04-10T06:56:29.580Z,68.54
2019-04-10T06:57:54.827Z,68.35
2019-04-10T06:59:09.176Z,68.82
2019-04-10T07:00:22.876Z,68.63
2019-04-10T07:01:50.850Z,68.35
2019-04-10T07:03:56.397Z,68.73
2019-04-10T07:05:16.426Z,68.44
2019-04-10T07:07:00.614Z,68.63
2019-04-10T07:08:28.023Z,67.4
2019-04-10T07:09:40.408Z,67.52
2019-04-10T07:11:05.741Z,66.96
2019-04-10T07:12:34.165Z,65.63
2019-04-10T07:13:45.458Z,65.91
2019-04-10T07:15:00.706Z,65.82
2019-04-10T07:16:13.593Z,65.53
2019-04-10T07:17:25.019Z,65.34
2019-04-10T07:18:41.252Z,65.72
2019-04-10T07:19:58.036Z,65.06
2019-04-10T07:21:08.601Z,64.97
2019-04-10T07:22:20.712Z,65.25
2019-04-10T07:23:33.779Z,64.78
2019-04-10T07:24:46.034Z,63.92
2019-04-10T07:25:58.726Z,63.64
2019-04-10T07:27:10.253Z,63.57
2019-04-10T07:28:23.561Z,63.57
2019-04-10T07:29:34.111Z,63.1
2019-04-10T07:30:45.992Z,63.1
2019-04-10T07:32:07.652Z,63.1
2019-04-10T07:33:24.510Z,63.39
2019-04-10T07:34:34.475Z,62.34
2019-04-10T07:35:46.376Z,61.2
2019-04-10T07:37:02.851Z,61.11
2019-04-10T07:38:24.562Z,61.23
2019-04-10T07:39:37.460Z,61.61
2019-04-10T07:40:51.171Z,61.04
2019-04-10T07:42:02.284Z,60.47
2019-04-10T07:43:13.532Z,59.91
2019-04-10T07:44:31.976Z,59.43
2019-04-10T07:45:41.687Z,59.33
2019-04-10T07:46:52.837Z,59.62
2019-04-10T07:48:09.062Z,59.43
2019-04-10T07:49:22.183Z,58.67
2019-04-10T07:50:45.809Z,58.61
2019-04-10T07:51:56.849Z,58.89
2019-04-10T07:53:08.607Z,58.8
2019-04-10T07:54:23.107Z,58.32
2019-04-10T07:55:34.063Z,58.41
2019-04-10T07:57:00.594Z,58.8
2019-04-10T07:58:13.168Z,58.8
2019-04-10T07:59:25.036Z,58.13
2019-04-10T08:00:36.906Z,56.42
2019-04-10T08:01:48.077Z,56.42
2019-04-10T08:02:59.948Z,56.23
2019-04-10T08:04:11.144Z,56.04
2019-04-10T08:05:23.439Z,55.94
2019-04-10T08:06:33.222Z,55.85
2019-04-10T08:07:43.120Z,55.85
2019-04-10T08:08:56.294Z,55.69
2019-04-10T08:10:08.056Z,55.59
2019-04-10T08:11:20.001Z,55.5
2019-04-10T08:12:48.917Z,54.83
2019-04-10T08:14:06.488Z,54.45
2019-04-10T08:15:19.185Z,54.17
2019-04-10T08:16:30.755Z,54.26
2019-04-10T08:17:41.449Z,54.55
2019-04-10T08:18:56.885Z,54.45
2019-04-10T08:20:08.062Z,54.74
2019-04-10T08:21:19.493Z,54.17
2019-04-10T08:22:31.129Z,53.88
2019-04-10T08:23:42.408Z,54.48
2019-04-10T08:24:54.085Z,53.72
2019-04-10T08:26:06.033Z,53.81
2019-04-10T08:27:17.225Z,53.15
2019-04-10T08:28:30.610Z,53.72
2019-04-10T08:29:42.792Z,52.67
2019-04-10T08:30:54.880Z,51.82
2019-04-10T08:32:08.052Z,52.1
2019-04-10T08:33:19.921Z,52.1
2019-04-10T08:34:31.435Z,51.56
2019-04-10T08:35:42.253Z,50.13
2019-04-10T08:36:56.770Z,50.13
2019-04-10T08:38:07.911Z,50.48
2019-04-10T08:39:41.043Z,50.58
2019-04-10T08:40:59.215Z,50.48
2019-04-10T08:42:11.194Z,50.68
2019-04-10T08:43:22.482Z,50.77
2019-04-10T08:44:36.096Z,50.51
2019-04-10T08:45:53.696Z,50.13
2019-04-10T08:47:05.239Z,50.32
2019-04-10T08:48:16.318Z,50.42
2019-04-10T08:49:30.714Z,50.42
2019-04-10T08:50:41.939Z,50.13
2019-04-10T08:51:52.935Z,49.94
2019-04-10T08:53:04.516Z,50.04
2019-04-10T08:54:14.919Z,50.23
2019-04-10T08:55:26.715Z,49.85
2019-04-10T08:56:38.872Z,49.94
2019-04-10T08:57:50.304Z,49.58
2019-04-10T08:59:01.727Z,49.01
2019-04-10T09:00:12.806Z,49.2
2019-04-10T09:01:25.027Z,48.73
2019-04-10T09:02:36.360Z,48.54
2019-04-10T09:03:47.469Z,48.44
2019-04-10T09:04:59.433Z,48.47
2019-04-10T09:06:09.686Z,47.89
2019-04-10T09:07:22.081Z,47.42
2019-04-10T09:08:32.880Z,47.61
2019-04-10T09:09:42.637Z,46.75
2019-04-10T09:10:53.009Z,46.84
2019-04-10T09:12:05.211Z,46.2
2019-04-10T09:13:14.998Z,45.44
2019-04-10T09:14:26.554Z,45.92
2019-04-10T09:15:38.311Z,45.83
2019-04-10T09:16:49.290Z,44.78
2019-04-10T09:18:02.221Z,44.2
2019-04-10T09:19:14.497Z,44.96
2019-04-10T09:20:29.238Z,44.78
2019-04-10T09:21:41.685Z,44.2
2019-04-10T09:23:39.622Z,44.51
2019-04-10T09:25:04.979Z,44.51
2019-04-10T09:26:15.859Z,43.77
2019-04-10T09:27:26.804Z,42.46
2019-04-10T09:28:38.198Z,41.79
2019-04-10T09:29:49.172Z,41.5
2019-04-10T09:30:59.854Z,40.57
2019-04-10T09:32:11.231Z,40.09
2019-04-10T09:33:30.744Z,39.59
2019-04-10T09:34:45.375Z,39.9
2019-04-10T09:35:55.859Z,39.71
2019-04-10T09:37:06.341Z,39.52
2019-04-10T09:38:17.077Z,38.39
2019-04-10T09:39:30.003Z,38.68
2019-04-10T09:40:42.939Z,38.39
2019-04-10T09:41:54.550Z,38.2
2019-04-10T09:43:05.070Z,38.49
2019-04-10T09:44:17.187Z,37.65
2019-04-10T09:45:29.107Z,37.46
2019-04-10T09:46:40.785Z,36.88
2019-04-10T09:47:50.843Z,36.98
2019-04-10T09:49:01.057Z,36.6
2019-04-10T09:50:15.283Z,36.9
2019-04-10T09:51:28.071Z,36.23
2019-04-10T09:52:40.045Z,35.29
2019-04-10T09:53:51.445Z,33.87
2019-04-10T09:55:03.137Z,33.7
2019-04-10T09:56:13.829Z,33.43
2019-04-10T09:57:24.899Z,33.04
2019-04-10T09:58:35.114Z,32.1
2019-04-10T09:59:47.150Z,31.15
2019-04-10T10:00:58.957Z,30.87
2019-04-10T10:02:11.688Z,30.58
2019-04-10T10:03:22.358Z,29.26
2019-04-10T10:04:33.711Z,28.89
2019-04-10T10:05:44.960Z,29.08
2019-04-10T10:06:56.120Z,28.79
2019-04-10T10:08:07.894Z,29.08
2019-04-10T10:09:20.024Z,28.61
2019-04-10T10:10:34.317Z,28.53
2019-04-10T10:11:47.911Z,27.95
2019-04-10T10:12:59.159Z,26.53
2019-04-10T10:14:10.456Z,26.24
2019-04-10T10:15:21.411Z,26.06
2019-04-10T10:16:33.768Z,25.78
2019-04-10T10:17:45.016Z,25.11
2019-04-10T10:18:57.373Z,25.02
2019-04-10T10:20:08.334Z,24.34
2019-04-10T10:21:19.376Z,24.63
2019-04-10T10:22:30.836Z,24.45
2019-04-10T10:23:43.148Z,24.54
2019-04-10T10:24:56.327Z,24.34
2019-04-10T10:26:08.264Z,23.77
2019-04-10T10:27:18.339Z,24.23
2019-04-10T10:28:30.908Z,23.94
2019-04-10T10:29:42.052Z,24.04
2019-04-10T10:30:56.090Z,23.56
2019-04-10T10:32:07.170Z,23.49
2019-04-10T10:33:18.462Z,23.1
2019-04-10T10:34:28.776Z,21.97
2019-04-10T10:35:41.017Z,21.69
2019-04-10T10:36:55.891Z,22.56
2019-04-10T10:38:08.507Z,21.88
2019-04-10T10:39:20.943Z,20.63
2019-04-10T10:40:32.282Z,20.92
2019-04-10T10:41:42.971Z,21.88
2019-04-10T10:42:54.377Z,21.96
2019-04-10T10:44:05.530Z,21.65
2019-04-10T10:45:16.877Z,21.72
2019-04-10T10:46:28.363Z,22.39
2019-04-10T10:47:40.357Z,22.67
2019-04-10T10:48:51.674Z,23.06
2019-04-10T10:50:04.517Z,23.91
2019-04-10T10:51:15.275Z,24.66
2019-04-10T10:52:26.126Z,25.04
2019-04-10T10:53:37.005Z,25.23
2019-04-10T10:54:47.655Z,26.27
2019-04-10T10:56:00.431Z,26.54
2019-04-10T10:57:13.239Z,27.03
2019-04-10T10:58:24.247Z,27.03
2019-04-10T10:59:35.971Z,27.11
2019-04-10T11:00:47.355Z,27.11
2019-04-10T11:01:58.901Z,26.63
2019-04-10T11:03:10.257Z,26.25
2019-04-10T11:04:21.580Z,26.25
2019-04-10T11:05:35.081Z,25.77
2019-04-10T11:06:59.170Z,26.15
2019-04-10T11:08:11.489Z,26.25
2019-04-10T11:09:24.786Z,26.52
2019-04-10T11:10:39.005Z,26.81
2019-04-10T11:11:59.872Z,27.08
2019-04-10T11:13:12.756Z,26.79
2019-04-10T11:14:23.924Z,27.84
2019-04-10T11:15:40.757Z,27.45
2019-04-10T11:16:56.567Z,27.36
2019-04-10T11:18:10.204Z,26.78
2019-04-10T11:19:23.454Z,26.59
2019-04-10T11:20:36.278Z,26.79
2019-04-10T11:21:47.551Z,26.33
2019-04-10T11:23:00.471Z,25.77
2019-04-10T11:24:13.718Z,25.1
2019-04-10T11:25:26.220Z,24.82
2019-04-10T11:26:40.083Z,23.78
2019-04-10T11:27:54.060Z,23.69
2019-04-10T11:29:08.118Z,23.71
2019-04-10T11:30:20.655Z,23.42
2019-04-10T11:31:33.858Z,22.84
2019-04-10T11:32:50.592Z,22.38
2019-04-10T11:34:08.125Z,21.91
2019-04-10T11:35:21.887Z,20.85
2019-04-10T11:36:32.471Z,20.84
2019-04-10T11:37:54.152Z,20.85
2019-04-10T11:39:25.473Z,21.71
2019-04-10T11:42:47.728Z,20.76
2019-04-10T11:44:08.074Z,20.47
2019-04-10T11:45:41.092Z,20.47
2019-04-10T11:48:56.552Z,20.31
2019-04-10T11:50:21.599Z,20.4
2019-04-10T11:51:41.066Z,19.93
2019-04-10T11:55:16.785Z,20.7
2019-04-10T11:56:50.877Z,20.11
2019-04-10T12:01:34.695Z,19.73
2019-04-10T12:02:58.471Z,19.54
2019-04-10T12:04:19.982Z,19.36
2019-04-10T12:05:51.904Z,18.88
2019-04-10T12:07:47.963Z,19.27
2019-04-10T12:12:01.835Z,18.88
2019-04-10T12:13:15.155Z,18.42
2019-04-10T12:14:28.053Z,18.43
2019-04-10T12:15:38.911Z,18.32
2019-04-10T12:16:51.912Z,17.65
2019-04-10T12:18:04.756Z,18.12
2019-04-10T12:19:17.654Z,18.22
2019-04-10T12:20:31.620Z,18.51
2019-04-10T12:21:44.561Z,18.7
2019-04-10T12:22:57.061Z,17.84
2019-04-10T12:24:09.435Z,18.24
2019-04-10T12:25:19.456Z,18.33
2019-04-10T12:26:30.490Z,19.2
2019-04-10T12:27:41.527Z,19.1
2019-04-10T12:28:52.360Z,18.82
2019-04-10T12:30:03.448Z,18.82
2019-04-10T12:31:15.585Z,19.58
2019-04-10T12:32:28.270Z,19.65
2019-04-10T12:33:40.447Z,20.23
2019-04-10T12:34:51.152Z,20.61
2019-04-10T12:36:02.774Z,21.45
2019-04-10T12:37:13.661Z,21.26
2019-04-10T12:38:25.813Z,20.78
2019-04-10T12:39:37.093Z,21.06
2019-04-10T12:40:49.154Z,20.78
2019-04-10T12:42:00.073Z,20.31
2019-04-10T12:43:10.941Z,20.4
2019-04-10T12:44:21.937Z,20.8
2019-04-10T12:45:33.076Z,20.23
2019-04-10T12:46:43.969Z,20.04
2019-04-10T12:47:54.878Z,19.56
2019-04-10T12:49:07.364Z,19.65
2019-04-10T12:50:18.656Z,19.37
2019-04-10T12:51:27.878Z,20.04
2019-04-10T12:52:38.757Z,20.23
2019-04-10T12:53:51.765Z,20.68
2019-04-10T12:55:04.421Z,20.68
2019-04-10T12:56:16.188Z,21.62
2019-04-10T12:57:26.735Z,22.01
2019-04-10T12:58:37.728Z,22.77
2019-04-10T12:59:48.039Z,22.85
2019-04-10T13:01:09.085Z,23.05
2019-04-10T13:02:20.855Z,23.15
2019-04-10T13:03:31.867Z,23.82
2019-04-10T13:04:45.255Z,23.9
2019-04-10T13:05:56.044Z,23.9
2019-04-10T13:07:08.162Z,23.9
2019-04-10T13:08:35.065Z,23.9
2019-04-10T13:10:15.631Z,23.06
2019-04-10T13:11:26.972Z,22.49
2019-04-10T13:12:37.918Z,22.38
2019-04-10T13:13:48.760Z,22.48
2019-04-10T13:15:01.591Z,22.49
2019-04-10T13:16:14.413Z,22.11
2019-04-10T13:17:27.234Z,21.92
2019-04-10T13:18:38.839Z,21.92
2019-04-10T13:19:49.677Z,21.44
2019-04-10T13:21:00.508Z,21.17
2019-04-10T13:22:11.999Z,20.59
2019-04-10T13:23:23.211Z,20.48
2019-04-10T13:24:34.009Z,20.11
2019-04-10T13:26:00.705Z,20.2
2019-04-10T13:27:17.126Z,20.12
2019-04-10T13:28:30.052Z,19.84
2019-04-10T13:29:42.728Z,19.07
2019-04-10T13:30:56.973Z,19.55
2019-04-10T13:32:12.212Z,19.65
2019-04-10T13:33:24.352Z,19.74
2019-04-10T13:34:35.816Z,19.55
2019-04-10T13:35:46.914Z,19.74
2019-04-10T13:36:56.724Z,20.13
2019-04-10T13:38:07.449Z,19.84
2019-04-10T13:39:37.167Z,19.84
2019-04-10T13:40:48.325Z,19.55
2019-04-10T13:41:59.544Z,20.23
2019-04-10T13:43:11.661Z,20.7
2019-04-10T13:44:22.865Z,20.97
2019-04-10T13:45:33.998Z,21.54
2019-04-10T13:46:45.047Z,22.2
2019-04-10T13:47:57.064Z,22.48
2019-04-10T13:49:07.065Z,22.58
2019-04-10T13:50:17.106Z,22.95
2019-04-10T13:51:27.924Z,23.05
2019-04-10T13:52:38.721Z,23.82
2019-04-10T13:53:55.217Z,23.8
2019-04-10T13:55:08.817Z,24.75
2019-04-10T13:56:21.459Z,25.41
2019-04-10T13:57:32.631Z,25.89
2019-04-10T13:58:42.817Z,26.16
2019-04-10T13:59:54.020Z,26.26
2019-04-10T14:01:05.527Z,26.56
2019-04-10T14:02:17.677Z,26.56
2019-04-10T14:03:28.520Z,26.46
2019-04-10T14:04:39.375Z,26.37
2019-04-10T14:05:49.926Z,25.81
2019-04-10T14:07:01.881Z,25.43
2019-04-10T14:08:12.914Z,25.34
2019-04-10T14:09:51.896Z,24.77
2019-04-10T14:11:04.706Z,24.29
2019-04-10T14:12:16.889Z,24.01
2019-04-10T14:13:28.133Z,23.15
2019-04-10T14:14:40.291Z,23.54
2019-04-10T14:15:50.870Z,23.06
2019-04-10T14:17:04.333Z,22.59
2019-04-10T14:18:16.858Z,22.69
2019-04-10T14:19:28.022Z,22.88
2019-04-10T14:20:40.023Z,23.15
2019-04-10T14:21:51.610Z,23.14
2019-04-10T14:23:02.534Z,23.05
2019-04-10T14:24:13.893Z,23.42
2019-04-10T14:25:25.732Z,23.8
2019-04-10T14:26:51.919Z,24.08
2019-04-10T14:28:07.354Z,24.37
2019-04-10T14:29:20.525Z,23.88
2019-04-10T14:30:31.691Z,24.93
2019-04-10T14:31:43.037Z,25.6
2019-04-10T14:32:55.222Z,26.08
2019-04-10T14:34:07.861Z,26.72
2019-04-10T14:35:19.384Z,27.39
2019-04-10T14:36:30.485Z,27.87
2019-04-10T14:37:41.362Z,28.55
2019-04-10T14:38:51.915Z,28.64
2019-04-10T14:40:22.458Z,28.64
2019-04-10T14:41:32.090Z,29.39
2019-04-10T14:42:43.231Z,29.95
2019-04-10T14:43:54.288Z,30.52
2019-04-10T14:45:05.957Z,30.81
2019-04-10T14:46:17.430Z,30.91
2019-04-10T14:47:30.034Z,30.72
2019-04-10T14:48:42.811Z,30.99
2019-04-10T14:49:56.830Z,30.72
2019-04-10T14:51:08.571Z,30.81
2019-04-10T14:52:19.655Z,31.27
2019-04-10T14:53:31.133Z,31.27
2019-04-10T14:54:42.230Z,31.47
2019-04-10T14:55:53.917Z,30.99
2019-04-10T14:57:05.059Z,30.8
2019-04-10T14:58:28.007Z,30.72
2019-04-10T14:59:42.511Z,30.05
2019-04-10T15:00:55.443Z,29.49
2019-04-10T15:02:08.439Z,29.39
2019-04-10T15:03:18.595Z,29.2
2019-04-10T15:04:29.620Z,29.3
2019-04-10T15:05:52.539Z,29.2
2019-04-10T15:07:08.473Z,29.2
2019-04-10T15:08:21.675Z,29.39
2019-04-10T15:09:31.746Z,29.95
2019-04-10T15:10:42.517Z,29.86
2019-04-10T15:11:53.467Z,29.76
2019-04-10T15:13:19.525Z,29.95
2019-04-10T15:14:37.385Z,29.95
2019-04-10T15:15:48.674Z,30.05
2019-04-10T15:17:07.539Z,30.05
2019-04-10T15:18:18.493Z,30.05
2019-04-10T15:19:29.615Z,29.84
2019-04-10T15:20:40.042Z,29.46
2019-04-10T15:21:52.667Z,29.36
2019-04-10T15:23:05.276Z,28.79
2019-04-10T15:24:15.616Z,29.08
2019-04-10T15:25:27.277Z,29.65
2019-04-10T15:26:38.618Z,29.65
2019-04-10T15:27:49.767Z,29.65
2019-04-10T15:29:00.639Z,29.63
2019-04-10T15:30:12.474Z,30.3
2019-04-10T15:31:26.323Z,30.49
2019-04-10T15:32:38.530Z,30.59
2019-04-10T15:33:51.551Z,30.88
2019-04-10T15:35:02.388Z,31.05
2019-04-10T15:36:14.021Z,31.63
2019-04-10T15:37:25.321Z,31.72
2019-04-10T15:38:36.393Z,31.43
2019-04-10T15:39:47.357Z,31.43
2019-04-10T15:40:59.171Z,31.53
2019-04-10T15:42:10.334Z,31.53
2019-04-10T15:43:24.938Z,31.43
2019-04-10T15:44:39.583Z,31.43
2019-04-10T15:45:52.233Z,31.53
2019-04-10T15:47:20.741Z,31.07
2019-04-10T15:48:33.484Z,30.69
2019-04-10T15:49:45.293Z,30.21
2019-04-10T15:50:56.217Z,29.92
2019-04-10T15:52:07.742Z,29.16
2019-04-10T15:53:18.360Z,29.25
2019-04-10T15:54:29.903Z,29.35
2019-04-10T15:55:40.994Z,29.73
2019-04-10T15:56:52.039Z,29.54
2019-04-10T15:58:05.223Z,29.35
2019-04-10T15:59:16.649Z,29.52
2019-04-10T16:00:27.861Z,30.19
2019-04-10T16:01:39.576Z,29.91
2019-04-10T16:02:49.539Z,30